Time;durP1;ratioP1;P1;durP2;ratioP2;P2;SDS_P1;SDS_P2;PMS_P1;PMS_P2;Temp;Humidity;BMP_temperature;BMP_pressure;BME280_temperature;BME280_humidity;BME280_pressure;Samples;Min_cycle;Max_cycle;Signal;HPM_P1;HPM_P2
2022/01/03 00:06:57;;;;;;;9.32;2.35;;;;;;;;;;4966770;28;20085;-84
2022/01/03 00:09:23;;;;;;;12.02;2.50;;;;;;;;;;4997470;28;20069;-84
2022/01/03 00:11:49;;;;;;;11.75;2.42;;;;;;;;;;4998165;28;20057;-85
2022/01/03 00:14:15;;;;;;;15.07;2.28;;;;;;;;;;4985702;28;20089;-85
2022/01/03 00:16:41;;;;;;;9.18;2.03;;;;;;;;;;4995455;28;20026;-85
2022/01/03 00:19:07;;;;;;;17.25;2.53;;;;;;;;;;4983181;28;20030;-86
2022/01/03 00:21:46;;;;;;;11.07;2.30;;;;;;;;;;4993563;28;20018;-84
2022/01/03 00:24:13;;;;;;;9.05;2.28;;;;;;;;;;4983702;28;20117;-84
2022/01/03 00:26:39;;;;;;;8.18;2.17;;;;;;;;;;4999841;28;20034;-85
2022/01/03 00:29:11;;;;;;;18.67;2.75;;;;;;;;;;4997753;28;20044;-85
2022/01/03 00:31:41;;;;;;;15.90;2.22;;;;;;;;;;5003805;28;20026;-84
2022/01/03 00:34:08;;;;;;;9.18;1.85;;;;;;;;;;5004573;28;20018;-85
2022/01/03 00:36:35;;;;;;;10.77;1.92;;;;;;;;;;4981635;28;20031;-84
2022/01/03 00:39:01;;;;;;;13.00;1.90;;;;;;;;;;4981244;28;20471;-84
2022/01/03 00:41:27;;;;;;;12.50;2.05;;;;;;;;;;4982006;28;20089;-84
2022/01/03 00:43:54;;;;;;;15.80;2.33;;;;;;;;;;4983964;28;20031;-85
2022/01/03 00:46:20;;;;;;;12.85;2.10;;;;;;;;;;4982180;28;20114;-85
2022/01/03 00:48:46;;;;;;;6.38;1.98;;;;;;;;;;4992474;28;20022;-85
2022/01/03 00:51:17;;;;;;;11.32;2.22;;;;;;;;;;4999183;28;20155;-85
2022/01/03 00:53:43;;;;;;;10.43;2.17;;;;;;;;;;4999572;28;20014;-85
2022/01/03 00:56:19;;;;;;;8.80;2.45;;;;;;;;;;4996357;28;20494;-85
2022/01/03 00:58:45;;;;;;;9.57;1.98;;;;;;;;;;4984424;28;20026;-84
2022/01/03 01:01:11;;;;;;;16.20;2.33;;;;;;;;;;4985525;28;20060;-86
2022/01/03 01:03:39;;;;;;;8.88;2.25;;;;;;;;;;4981302;28;20035;-85
2022/01/03 01:06:06;;;;;;;12.80;2.58;;;;;;;;;;4978321;28;20015;-85
2022/01/03 01:08:33;;;;;;;7.65;2.20;;;;;;;;;;4996167;28;20057;-85
2022/01/03 01:10:59;;;;;;;7.38;2.13;;;;;;;;;;4998319;28;20029;-85
2022/01/03 01:13:25;;;;;;;8.60;2.15;;;;;;;;;;4990445;28;20035;-84
2022/01/03 01:15:51;;;;;;;8.60;2.20;;;;;;;;;;4987239;28;20565;-85
2022/01/03 01:18:18;;;;;;;11.27;2.90;;;;;;;;;;4990764;28;20546;-85
2022/01/03 01:20:44;;;;;;;7.82;2.17;;;;;;;;;;4982282;28;20031;-85
2022/01/03 01:23:11;;;;;;;8.95;1.80;;;;;;;;;;4976584;28;20042;-85
2022/01/03 01:28:05;;;;;;;12.25;2.88;;;;;;;;;;4986211;28;20050;-85
2022/01/03 01:30:31;;;;;;;12.35;2.30;;;;;;;;;;4978608;28;20031;-85
2022/01/03 01:33:08;;;;;;;9.07;1.85;;;;;;;;;;4982849;28;20022;-85
2022/01/03 01:35:34;;;;;;;12.38;2.33;;;;;;;;;;4995265;28;20030;-85
2022/01/03 01:38:01;;;;;;;17.67;2.58;;;;;;;;;;4998113;28;20033;-85
2022/01/03 01:40:27;;;;;;;8.13;1.92;;;;;;;;;;4996930;28;20034;-85
2022/01/03 01:42:55;;;;;;;8.57;1.75;;;;;;;;;;4981032;28;20093;-86
2022/01/03 01:45:23;;;;;;;9.70;2.13;;;;;;;;;;4981101;28;20023;-84
2022/01/03 01:47:53;;;;;;;15.75;2.08;;;;;;;;;;4992995;28;20085;-85
2022/01/03 01:50:20;;;;;;;15.00;2.90;;;;;;;;;;4985062;28;20019;-84
2022/01/03 01:52:48;;;;;;;12.32;3.05;;;;;;;;;;4976801;28;20027;-84
2022/01/03 01:55:14;;;;;;;11.98;2.67;;;;;;;;;;4978855;28;20081;-84
2022/01/03 01:57:58;;;;;;;14.50;2.33;;;;;;;;;;4986949;28;20030;-85
2022/01/03 02:00:24;;;;;;;12.50;2.97;;;;;;;;;;4988580;28;20029;-84
2022/01/03 02:02:53;;;;;;;11.10;2.40;;;;;;;;;;4979187;28;20141;-84
2022/01/03 02:05:40;;;;;;;9.05;2.28;;;;;;;;;;4997926;28;20035;-85
2022/01/03 02:08:09;;;;;;;9.80;2.35;;;;;;;;;;4996125;28;20050;-85
2022/01/03 02:10:37;;;;;;;13.35;2.42;;;;;;;;;;4991338;28;20027;-84
2022/01/03 02:13:03;;;;;;;9.82;1.98;;;;;;;;;;4997890;28;20033;-85
2022/01/03 02:15:31;;;;;;;12.68;2.08;;;;;;;;;;4996411;28;20041;-84
2022/01/03 02:17:57;;;;;;;7.03;2.33;;;;;;;;;;4982390;28;20125;-85
2022/01/03 02:20:26;;;;;;;7.18;2.40;;;;;;;;;;4979717;28;20025;-85
2022/01/03 02:22:53;;;;;;;8.80;2.28;;;;;;;;;;4978593;28;20031;-85
2022/01/03 02:25:20;;;;;;;15.00;2.35;;;;;;;;;;4989514;28;20674;-84
2022/01/03 02:27:48;;;;;;;13.48;2.38;;;;;;;;;;4996166;28;20053;-84
2022/01/03 02:30:15;;;;;;;12.20;2.13;;;;;;;;;;4994351;28;20042;-85
2022/01/03 02:32:42;;;;;;;11.48;2.25;;;;;;;;;;4997386;28;21016;-84
2022/01/03 02:35:09;;;;;;;15.13;2.17;;;;;;;;;;4997065;28;20030;-85
2022/01/03 02:37:35;;;;;;;8.18;2.08;;;;;;;;;;4995791;28;20121;-85
2022/01/03 02:40:01;;;;;;;13.02;2.33;;;;;;;;;;4981286;28;20066;-84
2022/01/03 02:42:27;;;;;;;11.88;2.20;;;;;;;;;;4978163;28;20023;-85
2022/01/03 02:45:00;;;;;;;14.18;2.70;;;;;;;;;;4977161;28;20030;-85
2022/01/03 02:47:26;;;;;;;12.00;2.15;;;;;;;;;;4981243;28;20046;-84
2022/01/03 02:49:52;;;;;;;9.52;1.83;;;;;;;;;;4987376;28;20035;-84
2022/01/03 02:52:19;;;;;;;16.02;2.88;;;;;;;;;;5011615;28;20026;-85
2022/01/03 02:54:45;;;;;;;13.40;2.35;;;;;;;;;;5017161;28;20086;-84
2022/01/03 02:57:11;;;;;;;13.80;2.38;;;;;;;;;;4988568;28;20383;-85
2022/01/03 02:59:37;;;;;;;14.20;2.33;;;;;;;;;;4995263;28;20157;-85
2022/01/03 03:02:05;;;;;;;17.40;2.20;;;;;;;;;;5007744;28;20473;-85
2022/01/03 03:04:31;;;;;;;19.33;2.50;;;;;;;;;;5006820;28;20030;-85
2022/01/03 03:06:57;;;;;;;9.70;2.72;;;;;;;;;;5000529;28;20043;-84
2022/01/03 03:09:23;;;;;;;17.95;2.75;;;;;;;;;;4990477;28;20061;-85
2022/01/03 03:11:49;;;;;;;12.95;2.13;;;;;;;;;;4985072;28;20093;-84
2022/01/03 03:14:16;;;;;;;11.98;2.08;;;;;;;;;;4984516;28;20022;-84
2022/01/03 03:16:42;;;;;;;9.07;2.28;;;;;;;;;;4995619;28;20066;-83
2022/01/03 03:19:09;;;;;;;14.25;2.63;;;;;;;;;;5001930;28;20489;-84
2022/01/03 03:21:35;;;;;;;13.75;2.60;;;;;;;;;;4988190;28;20030;-84
2022/01/03 03:24:01;;;;;;;10.68;2.30;;;;;;;;;;5002777;28;20033;-83
2022/01/03 03:26:27;;;;;;;5.95;1.90;;;;;;;;;;5000655;28;20478;-84
2022/01/03 03:28:54;;;;;;;18.67;2.60;;;;;;;;;;5001373;28;20026;-84
2022/01/03 03:31:20;;;;;;;11.65;2.83;;;;;;;;;;4989474;28;20027;-85
2022/01/03 03:33:46;;;;;;;15.50;2.75;;;;;;;;;;4982711;28;20410;-83
2022/01/03 03:36:12;;;;;;;10.55;1.88;;;;;;;;;;4980672;28;20031;-83
2022/01/03 03:38:38;;;;;;;17.15;2.38;;;;;;;;;;4978271;28;20027;-84
2022/01/03 03:41:04;;;;;;;13.15;2.60;;;;;;;;;;4982139;28;20410;-83
2022/01/03 03:43:30;;;;;;;16.10;2.88;;;;;;;;;;4981213;28;20019;-83
2022/01/03 03:45:56;;;;;;;18.02;3.58;;;;;;;;;;4979862;28;20058;-84
2022/01/03 03:48:23;;;;;;;10.63;2.38;;;;;;;;;;4980338;28;20031;-83
2022/01/03 03:50:49;;;;;;;10.65;2.05;;;;;;;;;;4992089;28;20026;-83
2022/01/03 03:53:16;;;;;;;9.02;2.38;;;;;;;;;;4991970;28;20038;-83
2022/01/03 03:55:43;;;;;;;10.57;1.88;;;;;;;;;;4980561;28;20038;-83
2022/01/03 03:58:09;;;;;;;14.20;2.33;;;;;;;;;;4980418;28;20407;-83
2022/01/03 04:00:35;;;;;;;13.98;2.15;;;;;;;;;;4994018;28;20569;-83
2022/01/03 04:03:01;;;;;;;11.80;2.20;;;;;;;;;;5001367;28;20054;-84
2022/01/03 04:05:27;;;;;;;13.20;2.08;;;;;;;;;;4997146;28;20058;-84
2022/01/03 04:07:53;;;;;;;15.52;2.80;;;;;;;;;;4999844;28;20034;-84
2022/01/03 04:10:19;;;;;;;8.10;1.83;;;;;;;;;;5000032;28;20030;-85
2022/01/03 04:12:46;;;;;;;9.48;2.08;;;;;;;;;;4997266;28;20081;-84
2022/01/03 04:15:12;;;;;;;10.75;2.05;;;;;;;;;;5000906;28;20033;-84
2022/01/03 04:17:38;;;;;;;16.15;2.70;;;;;;;;;;4997669;28;20036;-84
2022/01/03 04:20:05;;;;;;;12.93;3.35;;;;;;;;;;4981259;28;20030;-84
2022/01/03 04:22:31;;;;;;;14.43;3.63;;;;;;;;;;4980704;28;20037;-84
2022/01/03 04:24:57;;;;;;;17.02;3.38;;;;;;;;;;4982988;28;20026;-84
2022/01/03 04:27:24;;;;;;;15.05;2.88;;;;;;;;;;4995316;28;20026;-85
2022/01/03 04:29:50;;;;;;;15.52;2.88;;;;;;;;;;5000080;28;20034;-85
2022/01/03 04:32:16;;;;;;;10.40;2.28;;;;;;;;;;4987974;28;20092;-83
2022/01/03 04:34:42;;;;;;;12.50;2.50;;;;;;;;;;4980256;28;20498;-84
2022/01/03 04:37:08;;;;;;;10.77;1.90;;;;;;;;;;4985578;28;20451;-84
2022/01/03 04:39:34;;;;;;;16.70;1.95;;;;;;;;;;5001957;28;20023;-83
2022/01/03 04:42:00;;;;;;;14.88;2.45;;;;;;;;;;5004085;28;20030;-84
2022/01/03 04:44:26;;;;;;;9.07;2.08;;;;;;;;;;5002525;28;20033;-85
2022/01/03 04:46:55;;;;;;;12.98;2.08;;;;;;;;;;5017534;23;20047;-82
2022/01/03 04:49:21;;;;;;;14.68;2.92;;;;;;;;;;4964830;28;20034;-82
2022/01/03 04:51:47;;;;;;;13.13;2.35;;;;;;;;;;4965461;28;20035;-82
2022/01/03 04:54:13;;;;;;;16.95;2.45;;;;;;;;;;4963421;28;20078;-82
2022/01/03 04:56:39;;;;;;;13.10;2.55;;;;;;;;;;4974448;28;20031;-81
2022/01/03 04:59:05;;;;;;;17.17;2.88;;;;;;;;;;4980240;28;20053;-82
2022/01/03 05:01:31;;;;;;;9.80;1.95;;;;;;;;;;4980087;28;20026;-82
2022/01/03 05:03:57;;;;;;;12.05;2.30;;;;;;;;;;4982369;28;20023;-82
2022/01/03 05:06:23;;;;;;;16.20;2.92;;;;;;;;;;4980898;28;20029;-82
2022/01/03 05:08:49;;;;;;;9.82;1.98;;;;;;;;;;4980002;28;20037;-81
2022/01/03 05:11:15;;;;;;;8.80;2.05;;;;;;;;;;4979222;28;20039;-82
2022/01/03 05:13:41;;;;;;;18.70;2.45;;;;;;;;;;4960895;29;20051;-82
2022/01/03 05:16:07;;;;;;;14.15;2.22;;;;;;;;;;4969436;28;20038;-82
2022/01/03 05:18:33;;;;;;;12.55;2.15;;;;;;;;;;4962420;29;20034;-82
2022/01/03 05:21:00;;;;;;;16.83;2.28;;;;;;;;;;4965056;28;20031;-80
2022/01/03 05:23:26;;;;;;;10.50;2.00;;;;;;;;;;4967846;28;20431;-83
2022/01/03 05:25:52;;;;;;;16.52;3.13;;;;;;;;;;4971712;28;20045;-81
2022/01/03 05:28:18;;;;;;;16.27;2.45;;;;;;;;;;4955386;29;20458;-83
2022/01/03 05:30:44;;;;;;;13.95;2.25;;;;;;;;;;4956019;29;20035;-83
2022/01/03 05:33:10;;;;;;;13.32;2.13;;;;;;;;;;4956549;29;20038;-82
2022/01/03 05:35:36;;;;;;;15.63;2.25;;;;;;;;;;4961374;28;20027;-82
2022/01/03 05:38:02;;;;;;;12.25;2.15;;;;;;;;;;4970897;28;20073;-81
2022/01/03 05:40:28;;;;;;;19.70;3.17;;;;;;;;;;4957792;29;20488;-81
2022/01/03 05:42:55;;;;;;;13.30;2.47;;;;;;;;;;4957281;29;20027;-82
2022/01/03 05:45:21;;;;;;;14.85;2.30;;;;;;;;;;4956328;29;20037;-81
2022/01/03 05:47:47;;;;;;;16.77;2.40;;;;;;;;;;4955982;28;20039;-82
2022/01/03 05:50:14;;;;;;;14.68;2.70;;;;;;;;;;4957419;29;20030;-82
2022/01/03 05:52:40;;;;;;;10.65;2.40;;;;;;;;;;4958112;29;20031;-82
2022/01/03 05:55:07;;;;;;;19.25;3.30;;;;;;;;;;4963461;28;20030;-81
2022/01/03 05:57:33;;;;;;;18.67;2.42;;;;;;;;;;4977923;28;20076;-81
2022/01/03 06:00:00;;;;;;;21.48;3.78;;;;;;;;;;4976328;28;20487;-81
2022/01/03 06:02:30;;;;;;;15.63;2.33;;;;;;;;;;4983574;28;20055;-84
2022/01/03 06:04:59;;;;;;;17.08;2.53;;;;;;;;;;4994623;28;20043;-83
2022/01/03 06:07:25;;;;;;;14.15;2.17;;;;;;;;;;4983316;28;20027;-82
2022/01/03 06:09:51;;;;;;;11.95;2.75;;;;;;;;;;4983796;28;20078;-82
2022/01/03 06:12:18;;;;;;;13.52;2.33;;;;;;;;;;4984132;28;20025;-83
2022/01/03 06:14:45;;;;;;;17.75;2.88;;;;;;;;;;4982360;28;20113;-83
2022/01/03 06:17:11;;;;;;;16.05;2.72;;;;;;;;;;4964889;29;20087;-81
2022/01/03 06:19:37;;;;;;;22.35;3.15;;;;;;;;;;4964761;28;20027;-83
2022/01/03 06:22:04;;;;;;;15.13;2.75;;;;;;;;;;4963746;29;20193;-82
2022/01/03 06:24:30;;;;;;;23.33;2.35;;;;;;;;;;4965366;29;20105;-83
2022/01/03 06:26:57;;;;;;;22.92;2.83;;;;;;;;;;4960803;29;20034;-81
2022/01/03 06:29:23;;;;;;;15.02;2.45;;;;;;;;;;4963541;28;20046;-83
2022/01/03 06:31:50;;;;;;;17.90;2.67;;;;;;;;;;4963609;29;20038;-83
2022/01/03 06:34:17;;;;;;;12.23;2.72;;;;;;;;;;4963093;29;20055;-83
2022/01/03 06:36:43;;;;;;;21.17;2.92;;;;;;;;;;4964854;29;20078;-85
2022/01/03 06:39:10;;;;;;;21.70;3.00;;;;;;;;;;4963234;29;20027;-82
2022/01/03 06:41:36;;;;;;;15.73;2.45;;;;;;;;;;4964663;28;20074;-82
2022/01/03 06:44:02;;;;;;;20.23;2.85;;;;;;;;;;4963204;29;20031;-83
2022/01/03 06:46:28;;;;;;;14.85;2.50;;;;;;;;;;4962818;29;20066;-83
2022/01/03 06:48:54;;;;;;;15.27;2.38;;;;;;;;;;4961815;29;20667;-82
2022/01/03 06:51:20;;;;;;;14.68;2.90;;;;;;;;;;4963484;29;20019;-82
2022/01/03 06:53:47;;;;;;;14.95;3.00;;;;;;;;;;4963758;29;20178;-81
2022/01/03 06:56:13;;;;;;;10.40;2.60;;;;;;;;;;4977579;28;20491;-82
2022/01/03 06:58:39;;;;;;;11.95;1.75;;;;;;;;;;4983373;28;20031;-83
2022/01/03 07:01:05;;;;;;;6.60;1.92;;;;;;;;;;4980314;28;20049;-82
2022/01/03 07:03:31;;;;;;;8.45;2.03;;;;;;;;;;4981976;28;20038;-83
2022/01/03 07:05:57;;;;;;;18.08;2.33;;;;;;;;;;4981047;28;20034;-80
2022/01/03 07:08:23;;;;;;;8.63;2.17;;;;;;;;;;4980512;28;20023;-82
2022/01/03 07:10:49;;;;;;;10.73;1.75;;;;;;;;;;4980087;28;20025;-82
2022/01/03 07:13:16;;;;;;;9.82;2.10;;;;;;;;;;4979875;28;20108;-83
2022/01/03 07:21:11;;;;;;;15.70;3.22;;;;;;;;;;4981362;28;20517;-83
2022/01/03 07:23:39;;;;;;;14.23;3.25;;;;;;;;;;4979120;28;20686;-81
2022/01/03 07:26:05;;;;;;;19.15;3.38;;;;;;;;;;4978950;28;20019;-84
2022/01/03 07:28:31;;;;;;;15.73;3.15;;;;;;;;;;4979249;28;20019;-83
2022/01/03 07:30:57;;;;;;;22.60;3.30;;;;;;;;;;4978823;28;20125;-82
2022/01/03 07:33:23;;;;;;;22.88;3.90;;;;;;;;;;4981720;28;20033;-82
2022/01/03 07:35:49;;;;;;;15.05;2.85;;;;;;;;;;4985077;28;20033;-81
2022/01/03 07:38:15;;;;;;;20.70;3.50;;;;;;;;;;4984886;28;20042;-81
2022/01/03 07:40:41;;;;;;;22.45;4.75;;;;;;;;;;4985592;28;20034;-81
2022/01/03 07:43:07;;;;;;;16.05;3.35;;;;;;;;;;4985537;28;20030;-80
2022/01/03 07:45:33;;;;;;;15.48;2.70;;;;;;;;;;4986598;28;20112;-80
2022/01/03 07:47:59;;;;;;;21.83;3.55;;;;;;;;;;4983081;28;20034;-81
2022/01/03 07:50:25;;;;;;;11.23;2.70;;;;;;;;;;4982433;28;20383;-81
2022/01/03 07:52:51;;;;;;;16.27;3.03;;;;;;;;;;4983231;28;20035;-80
2022/01/03 07:55:18;;;;;;;20.23;3.03;;;;;;;;;;4982470;28;20031;-81
2022/01/03 07:57:44;;;;;;;24.35;3.42;;;;;;;;;;4984081;28;20027;-82
2022/01/03 08:00:12;;;;;;;15.75;3.33;;;;;;;;;;4990272;28;20039;-82
2022/01/03 08:02:41;;;;;;;22.20;3.47;;;;;;;;;;4992204;28;20086;-82
2022/01/03 08:05:09;;;;;;;21.35;3.65;;;;;;;;;;4986300;28;20064;-81
2022/01/03 08:07:35;;;;;;;14.10;2.35;;;;;;;;;;4965067;29;20027;-82
2022/01/03 08:10:01;;;;;;;19.90;3.45;;;;;;;;;;4971895;28;20034;-81
2022/01/03 08:12:27;;;;;;;17.33;3.75;;;;;;;;;;4985180;28;20041;-83
2022/01/03 08:14:53;;;;;;;19.48;3.28;;;;;;;;;;4981971;28;20378;-83
2022/01/03 08:17:19;;;;;;;17.65;3.03;;;;;;;;;;4979728;28;20162;-83
2022/01/03 08:19:45;;;;;;;15.95;2.85;;;;;;;;;;4982681;28;20057;-84
2022/01/03 08:22:11;;;;;;;23.95;3.10;;;;;;;;;;4985064;28;20047;-82
2022/01/03 08:24:37;;;;;;;27.60;3.42;;;;;;;;;;4982102;28;20541;-82
2022/01/03 08:27:03;;;;;;;16.55;2.95;;;;;;;;;;4982974;28;20037;-82
2022/01/03 08:29:29;;;;;;;21.65;2.72;;;;;;;;;;4982457;28;20026;-82
2022/01/03 08:31:56;;;;;;;17.70;3.53;;;;;;;;;;4983034;28;20019;-83
2022/01/03 08:34:22;;;;;;;14.32;3.75;;;;;;;;;;4989196;28;20050;-82
2022/01/03 08:36:48;;;;;;;22.02;2.97;;;;;;;;;;4991684;28;20077;-82
2022/01/03 08:39:14;;;;;;;32.53;3.97;;;;;;;;;;4985861;28;20479;-82
2022/01/03 08:41:40;;;;;;;14.98;3.60;;;;;;;;;;4985851;28;20093;-85
2022/01/03 08:44:06;;;;;;;20.42;2.78;;;;;;;;;;4984733;28;20027;-81
2022/01/03 08:46:32;;;;;;;19.25;2.65;;;;;;;;;;4979564;28;20043;-83
2022/01/03 08:48:59;;;;;;;17.33;2.88;;;;;;;;;;4981434;28;20125;-82
2022/01/03 08:51:25;;;;;;;24.33;3.15;;;;;;;;;;4982333;28;20093;-83
2022/01/03 08:53:51;;;;;;;17.65;3.28;;;;;;;;;;4982476;28;20019;-83
2022/01/03 08:56:18;;;;;;;18.48;2.97;;;;;;;;;;4982325;28;20027;-82
2022/01/03 08:58:44;;;;;;;18.02;3.08;;;;;;;;;;4981785;28;20041;-82
2022/01/03 09:01:10;;;;;;;21.88;3.03;;;;;;;;;;4981166;28;20087;-84
2022/01/03 09:03:36;;;;;;;14.13;3.05;;;;;;;;;;4982073;28;20107;-80
2022/01/03 09:06:02;;;;;;;16.00;3.17;;;;;;;;;;4982090;28;20506;-81
2022/01/03 09:08:28;;;;;;;21.63;2.85;;;;;;;;;;4982457;28;20030;-81
2022/01/03 09:10:54;;;;;;;23.13;2.85;;;;;;;;;;4983385;28;20046;-81
2022/01/03 09:13:21;;;;;;;20.50;3.20;;;;;;;;;;4982231;28;20057;-82
2022/01/03 09:15:48;;;;;;;12.05;3.03;;;;;;;;;;4982287;28;20038;-83
2022/01/03 09:18:15;;;;;;;17.70;2.45;;;;;;;;;;4980972;28;20034;-82
2022/01/03 09:20:41;;;;;;;18.83;2.55;;;;;;;;;;4991289;28;20034;-81
2022/01/03 09:23:15;;;;;;;18.08;3.15;;;;;;;;;;4995941;28;20077;-81
2022/01/03 09:30:53;;;;;;;13.77;2.10;;;;;;;;;;4991453;28;20045;-84
2022/01/03 09:33:19;;;;;;;19.88;2.78;;;;;;;;;;4985903;28;20043;-83
2022/01/03 09:35:45;;;;;;;11.45;2.88;;;;;;;;;;4984996;28;20037;-83
2022/01/03 09:38:12;;;;;;;17.75;4.13;;;;;;;;;;4984512;28;20114;-83
2022/01/03 09:40:39;;;;;;;19.63;3.90;;;;;;;;;;4985034;28;20030;-83
2022/01/03 09:43:08;;;;;;;19.75;2.47;;;;;;;;;;4983272;28;20085;-83
2022/01/03 09:45:34;;;;;;;14.38;2.78;;;;;;;;;;4983216;28;20031;-83
2022/01/03 09:48:01;;;;;;;13.95;2.72;;;;;;;;;;4983149;28;20041;-83
2022/01/03 09:50:27;;;;;;;12.85;2.42;;;;;;;;;;4984004;28;20034;-83
2022/01/03 09:52:54;;;;;;;18.98;3.55;;;;;;;;;;4982377;28;20035;-83
2022/01/03 09:55:22;;;;;;;15.70;2.40;;;;;;;;;;4983057;28;20027;-83
2022/01/03 09:57:48;;;;;;;13.43;2.70;;;;;;;;;;4983423;28;20074;-81
2022/01/03 10:00:15;;;;;;;9.90;2.28;;;;;;;;;;4983192;28;20038;-82
2022/01/03 10:02:41;;;;;;;13.65;2.45;;;;;;;;;;4983609;28;20047;-83
2022/01/03 10:05:08;;;;;;;14.73;2.70;;;;;;;;;;4983141;28;20114;-83
2022/01/03 10:07:34;;;;;;;14.35;2.42;;;;;;;;;;4982395;28;20394;-82
2022/01/03 10:10:01;;;;;;;18.63;3.28;;;;;;;;;;4981269;28;20023;-82
2022/01/03 10:12:27;;;;;;;23.42;3.13;;;;;;;;;;4982323;28;20468;-83
2022/01/03 10:14:53;;;;;;;18.05;2.92;;;;;;;;;;4981137;28;20084;-82
2022/01/03 10:17:19;;;;;;;11.25;2.60;;;;;;;;;;4980237;28;20025;-82
2022/01/03 10:19:53;;;;;;;12.25;2.42;;;;;;;;;;4972408;28;20030;-82
2022/01/03 10:22:23;;;;;;;18.80;2.85;;;;;;;;;;4974200;28;20051;-83
2022/01/03 10:24:49;;;;;;;12.82;2.53;;;;;;;;;;4974261;28;20578;-82
2022/01/03 10:27:15;;;;;;;16.50;2.55;;;;;;;;;;4972859;28;20034;-81
2022/01/03 10:29:41;;;;;;;15.00;2.03;;;;;;;;;;4975591;28;20023;-81
2022/01/03 10:32:11;;;;;;;16.88;2.63;;;;;;;;;;4975601;28;20074;-80
2022/01/03 10:34:37;;;;;;;11.45;1.90;;;;;;;;;;4983184;28;20019;-81
2022/01/03 10:37:11;;;;;;;11.85;2.15;;;;;;;;;;4989369;28;20027;-83
2022/01/03 10:39:37;;;;;;;11.93;2.13;;;;;;;;;;4982014;28;20027;-83
2022/01/03 10:42:23;;;;;;;13.55;3.40;;;;;;;;;;4980801;28;20026;-82
2022/01/03 10:44:50;;;;;;;17.73;2.83;;;;;;;;;;4981998;28;20028;-84
2022/01/03 10:47:29;;;;;;;17.33;2.72;;;;;;;;;;4993218;22;20129;-84
2022/01/03 10:49:56;;;;;;;19.30;4.32;;;;;;;;;;4979546;28;20085;-84
2022/01/03 10:52:22;;;;;;;13.85;2.45;;;;;;;;;;4975332;28;20118;-84
2022/01/03 10:55:07;;;;;;;18.58;2.92;;;;;;;;;;4978474;28;20460;-83
2022/01/03 10:57:53;;;;;;;14.73;2.53;;;;;;;;;;4978633;28;20027;-85
2022/01/03 11:00:22;;;;;;;20.83;3.17;;;;;;;;;;4983903;28;20059;-84
2022/01/03 11:05:52;;;;;;;18.10;3.58;;;;;;;;;;4965728;28;20035;-83
2022/01/03 11:11:03;;;;;;;16.05;2.85;;;;;;;;;;4980404;28;20074;-85
2022/01/03 11:13:32;;;;;;;23.50;3.28;;;;;;;;;;4989580;28;20411;-84
2022/01/03 11:16:03;;;;;;;19.83;4.10;;;;;;;;;;4996189;28;20023;-85
2022/01/03 11:18:30;;;;;;;10.50;2.30;;;;;;;;;;5001938;28;20034;-84
2022/01/03 11:21:02;;;;;;;20.50;3.72;;;;;;;;;;5003519;28;20433;-84
2022/01/03 11:23:28;;;;;;;8.32;2.25;;;;;;;;;;4965543;29;20118;-85
2022/01/03 11:29:32;;;;;;;;;;;;;;;;;;;;;
2022/01/03 11:35:34;;;;;;;12.15;2.72;;;;;;;;;;5005618;28;20073;-86
2022/01/03 11:40:50;;;;;;;12.90;2.28;;;;;;;;;;5446523;22;20051;-85
2022/01/03 11:43:19;;;;;;;18.48;2.70;;;;;;;;;;4987485;28;20035;-85
2022/01/03 11:52:24;;;;;;;8.68;2.00;;;;;;;;;;4946942;28;20126;-85
2022/01/03 11:55:13;;;;;;;14.88;2.30;;;;;;;;;;5400009;23;20048;-86
2022/01/03 11:58:13;;;;;;;21.15;2.65;;;;;;;;;;4931687;29;20024;-84
2022/01/03 12:14:43;;;;;;;10.63;1.95;;;;;;;;;;4851955;22;20341;-84
2022/01/03 12:22:59;;;;;;;14.77;2.58;;;;;;;;;;5098080;22;20585;-84
2022/01/03 12:25:25;;;;;;;11.88;2.50;;;;;;;;;;5001574;28;20069;-85
2022/01/03 12:31:39;;;;;;;12.68;2.30;;;;;;;;;;4959933;29;20607;-86
2022/01/03 12:34:35;;;;;;;8.18;1.67;;;;;;;;;;4900351;29;20025;-84
2022/01/03 12:42:20;;;;;;;12.02;2.78;;;;;;;;;;5909030;23;20074;-84
2022/01/03 12:44:49;;;;;;;11.23;1.80;;;;;;;;;;4995269;28;20172;-84
2022/01/03 12:47:16;;;;;;;6.30;1.83;;;;;;;;;;4995894;28;20033;-84
2022/01/03 12:49:43;;;;;;;7.07;2.05;;;;;;;;;;4993915;28;20051;-86
2022/01/03 12:52:18;;;;;;;10.88;1.70;;;;;;;;;;4993713;28;20549;-86
2022/01/03 12:54:45;;;;;;;9.43;1.80;;;;;;;;;;4992107;28;20038;-86
2022/01/03 12:57:15;;;;;;;12.15;1.90;;;;;;;;;;4989347;28;20039;-85
2022/01/03 12:59:41;;;;;;;14.57;1.80;;;;;;;;;;4993808;28;20034;-86
2022/01/03 13:02:30;;;;;;;10.95;1.90;;;;;;;;;;4991321;28;20456;-85
2022/01/03 13:04:56;;;;;;;12.13;1.60;;;;;;;;;;4994172;28;20031;-86
2022/01/03 13:07:23;;;;;;;12.75;2.17;;;;;;;;;;4993149;28;20042;-86
2022/01/03 13:09:49;;;;;;;7.25;1.83;;;;;;;;;;4992734;28;20489;-85
2022/01/03 13:12:15;;;;;;;10.45;1.88;;;;;;;;;;4991095;28;20031;-86
2022/01/03 13:14:41;;;;;;;15.25;2.35;;;;;;;;;;4991221;28;20027;-85
2022/01/03 13:17:09;;;;;;;10.48;1.65;;;;;;;;;;4988334;28;20053;-86
2022/01/03 13:19:36;;;;;;;12.60;1.88;;;;;;;;;;4990612;28;20046;-87
2022/01/03 13:22:02;;;;;;;8.85;1.67;;;;;;;;;;4988306;28;20027;-85
2022/01/03 13:24:34;;;;;;;12.90;2.15;;;;;;;;;;4990161;28;20041;-85
2022/01/03 13:27:22;;;;;;;10.15;1.40;;;;;;;;;;4985450;28;20023;-86
2022/01/03 13:29:51;;;;;;;12.05;1.70;;;;;;;;;;4986909;28;20025;-85
2022/01/03 13:32:19;;;;;;;7.43;1.45;;;;;;;;;;4993308;28;20018;-85
2022/01/03 13:34:49;;;;;;;8.07;1.95;;;;;;;;;;4993531;28;20050;-85
2022/01/03 13:37:15;;;;;;;13.13;2.75;;;;;;;;;;4991879;28;20030;-85
2022/01/03 13:39:42;;;;;;;15.00;2.50;;;;;;;;;;4993611;28;20070;-85
2022/01/03 13:42:08;;;;;;;15.50;2.75;;;;;;;;;;4993853;28;20030;-85
2022/01/03 13:50:05;;;;;;;14.18;2.42;;;;;;;;;;4994060;28;20053;-85
2022/01/03 13:52:33;;;;;;;12.98;2.00;;;;;;;;;;4994408;28;20034;-85
2022/01/03 13:55:02;;;;;;;8.18;1.40;;;;;;;;;;4990714;28;20031;-85
2022/01/03 13:57:29;;;;;;;6.22;1.65;;;;;;;;;;4991898;28;20022;-84
2022/01/03 13:59:55;;;;;;;11.52;1.65;;;;;;;;;;4990260;28;20177;-85
2022/01/03 14:02:23;;;;;;;9.77;1.95;;;;;;;;;;4992091;28;20033;-84
2022/01/03 14:04:49;;;;;;;8.50;1.58;;;;;;;;;;4992494;28;20083;-85
2022/01/03 14:07:15;;;;;;;12.30;2.15;;;;;;;;;;4991447;28;20023;-85
2022/01/03 14:09:46;;;;;;;10.02;1.88;;;;;;;;;;4992322;28;20037;-85
2022/01/03 14:12:13;;;;;;;12.98;1.85;;;;;;;;;;4993194;28;20027;-86
2022/01/03 14:14:40;;;;;;;11.40;1.95;;;;;;;;;;4992589;28;20079;-85
2022/01/03 14:17:07;;;;;;;10.68;1.92;;;;;;;;;;4989255;28;20051;-86
2022/01/03 14:19:33;;;;;;;9.77;1.90;;;;;;;;;;4991966;28;20042;-85
2022/01/03 14:22:16;;;;;;;7.60;2.00;;;;;;;;;;4990037;28;20023;-85
2022/01/03 14:25:02;;;;;;;7.70;1.60;;;;;;;;;;4986373;28;20094;-85
2022/01/03 14:27:29;;;;;;;19.08;2.70;;;;;;;;;;4981095;28;20450;-86
2022/01/03 14:30:09;;;;;;;10.25;1.83;;;;;;;;;;4981947;28;20019;-85
2022/01/03 14:32:38;;;;;;;9.88;1.60;;;;;;;;;;4982097;28;20035;-86
2022/01/03 14:35:04;;;;;;;21.08;2.08;;;;;;;;;;4980767;28;20086;-85
2022/01/03 14:37:32;;;;;;;9.02;1.75;;;;;;;;;;4982122;28;20065;-85
2022/01/03 14:39:58;;;;;;;8.65;1.90;;;;;;;;;;4980824;28;20046;-85
2022/01/03 14:42:27;;;;;;;8.43;1.75;;;;;;;;;;4980813;28;20039;-86
2022/01/03 14:44:53;;;;;;;13.45;2.10;;;;;;;;;;4981071;28;20019;-86
2022/01/03 14:47:24;;;;;;;9.65;2.47;;;;;;;;;;4980550;28;20082;-84
2022/01/03 14:49:58;;;;;;;9.98;2.17;;;;;;;;;;4981915;28;20023;-85
2022/01/03 14:52:31;;;;;;;11.10;1.77;;;;;;;;;;4979792;28;20086;-85
2022/01/03 14:54:57;;;;;;;8.57;2.00;;;;;;;;;;4980791;28;20357;-86
2022/01/03 14:57:27;;;;;;;9.45;1.58;;;;;;;;;;4980181;28;20045;-85
2022/01/03 14:59:53;;;;;;;10.95;1.85;;;;;;;;;;4990807;28;20046;-85
2022/01/03 15:02:20;;;;;;;14.77;2.50;;;;;;;;;;4979189;28;20054;-84
2022/01/03 15:04:46;;;;;;;12.13;1.98;;;;;;;;;;4981469;28;20019;-85
2022/01/03 15:07:12;;;;;;;7.68;1.83;;;;;;;;;;4978437;28;20027;-86
2022/01/03 15:09:39;;;;;;;12.80;1.95;;;;;;;;;;4978441;28;20019;-85
2022/01/03 15:12:05;;;;;;;9.40;1.67;;;;;;;;;;4980596;28;20510;-85
2022/01/03 15:14:31;;;;;;;6.55;2.45;;;;;;;;;;4979566;28;20041;-86
2022/01/03 15:16:57;;;;;;;10.82;1.88;;;;;;;;;;4980697;28;20087;-85
2022/01/03 15:19:23;;;;;;;15.75;1.90;;;;;;;;;;4980831;28;20062;-87
2022/01/03 15:21:49;;;;;;;8.38;2.58;;;;;;;;;;4980556;28;20479;-86
2022/01/03 15:24:15;;;;;;;14.63;1.95;;;;;;;;;;4980364;28;20026;-86
2022/01/03 15:26:41;;;;;;;8.75;1.30;;;;;;;;;;4981109;28;20459;-86
2022/01/03 15:29:07;;;;;;;8.60;1.60;;;;;;;;;;4981493;28;20029;-85
2022/01/03 15:31:34;;;;;;;8.77;2.10;;;;;;;;;;4981784;28;20078;-86
2022/01/03 15:34:00;;;;;;;7.95;1.83;;;;;;;;;;4984209;28;20031;-86
2022/01/03 15:36:26;;;;;;;9.98;2.05;;;;;;;;;;4986775;28;20073;-86
2022/01/03 15:38:52;;;;;;;12.43;2.70;;;;;;;;;;4980565;28;20035;-86
2022/01/03 15:41:19;;;;;;;10.77;2.20;;;;;;;;;;4979823;28;20031;-86
2022/01/03 15:43:45;;;;;;;24.58;2.65;;;;;;;;;;4988333;28;20030;-85
2022/01/03 15:46:13;;;;;;;9.07;2.15;;;;;;;;;;4996157;28;20019;-85
2022/01/03 15:48:39;;;;;;;11.25;1.98;;;;;;;;;;4996400;28;20058;-85
2022/01/03 15:51:05;;;;;;;9.30;1.98;;;;;;;;;;4979352;28;20031;-86